createdAt,value
2024-02-06T00:00:25.016Z,8.81
2024-02-06T00:02:52.786Z,8.81
2024-02-06T00:05:20.644Z,8.81
2024-02-06T00:07:48.540Z,8.80
2024-02-06T00:10:16.304Z,8.78
2024-02-06T00:12:44.346Z,8.77
2024-02-06T00:15:11.897Z,8.74
2024-02-06T00:17:39.582Z,8.74
2024-02-06T00:20:07.248Z,8.72
2024-02-06T00:22:35.134Z,8.70
2024-02-06T00:25:02.776Z,8.68
2024-02-06T00:27:30.516Z,8.66
2024-02-06T00:29:58.073Z,8.65
2024-02-06T00:32:25.820Z,8.66
2024-02-06T00:34:53.985Z,8.68
2024-02-06T00:37:21.627Z,8.67
2024-02-06T00:39:49.435Z,8.67
2024-02-06T00:42:16.992Z,8.67
2024-02-06T00:44:44.573Z,8.66
2024-02-06T00:47:12.114Z,8.66
2024-02-06T00:49:39.876Z,8.66
2024-02-06T00:52:07.664Z,8.67
2024-02-06T00:54:35.412Z,8.66
2024-02-06T00:57:03.274Z,8.66
2024-02-06T00:59:30.939Z,8.63
2024-02-06T01:01:58.571Z,8.62
2024-02-06T01:04:26.469Z,8.59
2024-02-06T01:06:54.300Z,8.58
2024-02-06T01:09:21.989Z,8.58
2024-02-06T01:11:49.653Z,8.59
2024-02-06T01:14:17.321Z,8.61
2024-02-06T01:16:45.283Z,8.61
2024-02-06T01:19:13.114Z,8.61
2024-02-06T01:21:40.815Z,8.59
2024-02-06T01:24:08.371Z,8.58
2024-02-06T01:26:36.030Z,8.57
2024-02-06T01:29:03.584Z,8.55
2024-02-06T01:31:31.249Z,8.54
2024-02-06T01:33:59.086Z,8.52
2024-02-06T01:36:26.787Z,8.49
2024-02-06T01:38:54.341Z,8.44
2024-02-06T01:41:21.998Z,8.36
2024-02-06T01:43:49.557Z,8.30
2024-02-06T01:46:17.258Z,8.24
2024-02-06T01:48:44.906Z,8.19
2024-02-06T01:51:13.627Z,8.15
2024-02-06T01:53:41.336Z,8.11
2024-02-06T01:56:08.895Z,8.06
2024-02-06T01:58:36.579Z,8.00
2024-02-06T02:01:04.541Z,7.95
2024-02-06T02:03:32.325Z,7.91
2024-02-06T02:06:00.259Z,7.88
2024-02-06T02:08:28.049Z,7.84
2024-02-06T02:10:55.679Z,7.80
2024-02-06T02:13:23.303Z,7.77
2024-02-06T02:15:50.939Z,7.75
2024-02-06T02:18:18.615Z,7.75
2024-02-06T02:20:46.734Z,7.74
2024-02-06T02:23:19.928Z,7.73
2024-02-06T02:25:53.738Z,7.72
2024-02-06T02:28:21.121Z,7.74
2024-02-06T02:30:48.754Z,7.74
2024-02-06T02:33:16.527Z,7.74
2024-02-06T02:35:44.186Z,7.75
2024-02-06T02:38:11.626Z,7.77
2024-02-06T02:40:39.583Z,7.79
2024-02-06T02:43:07.517Z,7.82
2024-02-06T02:45:35.437Z,7.84
2024-02-06T02:48:03.207Z,7.86
2024-02-06T02:50:30.864Z,7.87
2024-02-06T02:52:58.524Z,7.87
2024-02-06T02:55:26.176Z,7.86
2024-02-06T02:57:53.883Z,7.85
2024-02-06T03:00:21.610Z,7.83
2024-02-06T03:02:49.280Z,7.84
2024-02-06T03:05:17.241Z,7.83
2024-02-06T03:07:44.826Z,7.82
2024-02-06T03:10:12.523Z,7.80
2024-02-06T03:12:40.339Z,7.79
2024-02-06T03:15:07.878Z,7.77
2024-02-06T03:17:35.477Z,7.77
2024-02-06T03:20:03.167Z,7.76
2024-02-06T03:22:30.921Z,7.75
2024-02-06T03:24:58.564Z,7.76
2024-02-06T03:27:26.611Z,7.77
2024-02-06T03:29:54.264Z,7.78
2024-02-06T03:32:21.962Z,7.75
2024-02-06T03:34:49.768Z,7.73
2024-02-06T03:37:17.474Z,7.73
2024-02-06T03:39:45.017Z,7.73
2024-02-06T03:42:12.670Z,7.72
2024-02-06T03:44:40.225Z,7.71
2024-02-06T03:47:07.898Z,7.71
2024-02-06T03:49:35.616Z,7.69
2024-02-06T03:52:03.460Z,7.71
2024-02-06T03:54:31.090Z,7.72
2024-02-06T03:56:58.751Z,7.73
2024-02-06T03:59:26.308Z,7.74
2024-02-06T04:01:54.133Z,7.75
2024-02-06T04:04:21.911Z,7.75
2024-02-06T04:06:49.756Z,7.76
2024-02-06T04:09:17.362Z,7.76
2024-02-06T04:11:44.919Z,7.76
2024-02-06T04:14:12.493Z,7.76
2024-02-06T04:16:40.080Z,7.75
2024-02-06T04:19:07.897Z,7.75
2024-02-06T04:21:35.727Z,7.75
2024-02-06T04:24:03.328Z,7.75
2024-02-06T04:26:30.897Z,7.75
2024-02-06T04:28:58.858Z,7.74
2024-02-06T04:31:26.426Z,7.73
2024-02-06T04:33:54.203Z,7.73
2024-02-06T04:36:22.053Z,7.71
2024-02-06T04:38:49.612Z,7.69
2024-02-06T04:41:17.270Z,7.68
2024-02-06T04:43:45.020Z,7.66
2024-02-06T04:46:12.995Z,7.64
2024-02-06T04:48:40.774Z,7.64
2024-02-06T04:51:08.843Z,7.66
2024-02-06T04:53:36.502Z,7.66
2024-02-06T04:56:04.074Z,7.66
2024-02-06T04:58:31.744Z,7.65
2024-02-06T05:00:59.597Z,7.65
2024-02-06T05:03:27.253Z,7.66
2024-02-06T05:05:54.806Z,7.65
2024-02-06T05:08:22.170Z,7.65
2024-02-06T05:10:49.950Z,7.63
2024-02-06T05:13:17.987Z,7.62
2024-02-06T05:15:45.669Z,7.59
2024-02-06T05:18:13.482Z,7.58
2024-02-06T05:20:41.194Z,7.57
2024-02-06T05:23:08.757Z,7.57
2024-02-06T05:25:36.431Z,7.56
2024-02-06T05:28:04.116Z,7.55
2024-02-06T05:30:31.952Z,7.55
2024-02-06T05:32:59.615Z,7.56
2024-02-06T05:35:27.177Z,7.57
2024-02-06T05:37:54.936Z,7.58
2024-02-06T05:40:22.532Z,7.60
2024-02-06T05:42:50.154Z,7.60
2024-02-06T05:45:17.707Z,7.62
2024-02-06T05:47:45.402Z,7.62
2024-02-06T05:50:13.118Z,7.61
2024-02-06T05:52:40.938Z,7.60
2024-02-06T05:55:08.850Z,7.59
2024-02-06T05:57:36.638Z,7.57
2024-02-06T06:00:04.191Z,7.57
2024-02-06T06:02:31.856Z,7.57
2024-02-06T06:04:59.476Z,7.57
2024-02-06T06:07:27.328Z,7.56
2024-02-06T06:09:55.130Z,7.56
2024-02-06T06:12:22.895Z,7.57
2024-02-06T06:14:50.560Z,7.56
2024-02-06T06:17:18.332Z,7.56
2024-02-06T06:19:46.197Z,7.54
2024-02-06T06:22:13.999Z,7.55
2024-02-06T06:24:41.640Z,7.56
2024-02-06T06:27:09.488Z,7.56
2024-02-06T06:29:37.051Z,7.55
2024-02-06T06:32:04.699Z,7.54
2024-02-06T06:34:32.390Z,7.53
2024-02-06T06:37:00.185Z,7.53
2024-02-06T06:39:28.304Z,7.53
2024-02-06T06:41:55.965Z,7.53
2024-02-06T06:44:23.634Z,7.54
2024-02-06T06:46:51.295Z,7.55
2024-02-06T06:49:19.132Z,7.57
2024-02-06T06:51:46.829Z,7.59
2024-02-06T06:54:14.372Z,7.59
2024-02-06T06:56:41.949Z,7.60
2024-02-06T06:59:09.597Z,7.62
2024-02-06T07:01:37.318Z,7.62
2024-02-06T07:04:05.127Z,7.64
2024-02-06T07:06:35.469Z,7.67
2024-02-06T07:09:05.054Z,7.70
2024-02-06T07:11:32.719Z,7.71
2024-02-06T07:14:00.288Z,7.74
2024-02-06T07:16:27.856Z,7.77
2024-02-06T07:18:55.992Z,7.78
2024-02-06T07:21:23.672Z,7.79
2024-02-06T07:23:51.326Z,7.81
2024-02-06T07:26:19.008Z,7.84
2024-02-06T07:28:46.852Z,7.89
2024-02-06T07:31:14.636Z,7.93
2024-02-06T07:33:42.465Z,7.99
2024-02-06T07:36:10.154Z,8.05
2024-02-06T07:38:37.725Z,8.14
2024-02-06T07:41:05.699Z,8.24
2024-02-06T07:43:33.504Z,8.36
2024-02-06T07:46:01.368Z,8.47
2024-02-06T07:48:29.240Z,8.58
2024-02-06T07:50:56.970Z,8.71
2024-02-06T07:53:24.709Z,8.77
2024-02-06T07:55:52.364Z,8.78
2024-02-06T07:58:19.991Z,8.75
2024-02-06T08:00:47.928Z,8.64
2024-02-06T08:03:15.620Z,8.54
2024-02-06T08:05:43.504Z,8.48
2024-02-06T08:08:11.422Z,8.41
2024-02-06T08:10:39.241Z,8.31
2024-02-06T08:13:06.968Z,8.24
2024-02-06T08:15:34.789Z,8.17
2024-02-06T08:18:02.403Z,8.10
2024-02-06T08:20:30.235Z,8.05
2024-02-06T08:22:57.886Z,8.01
2024-02-06T08:25:25.867Z,8.00
2024-02-06T08:27:53.526Z,8.07
2024-02-06T08:30:21.167Z,8.17
2024-02-06T08:32:48.854Z,8.24
2024-02-06T08:35:16.679Z,8.38
2024-02-06T08:37:44.468Z,8.56
2024-02-06T08:40:12.277Z,8.82
2024-02-06T08:42:40.090Z,9.04
2024-02-06T08:45:07.760Z,9.07
2024-02-06T08:47:35.636Z,9.09
2024-02-06T08:50:03.516Z,9.12
2024-02-06T08:52:31.320Z,9.12
2024-02-06T08:54:59.053Z,9.15
2024-02-06T08:57:26.782Z,9.27
2024-02-06T08:59:54.341Z,9.36
2024-02-06T09:02:22.116Z,9.47
2024-02-06T09:04:50.249Z,9.61
2024-02-06T09:07:18.157Z,9.91
2024-02-06T09:09:45.915Z,10.28
2024-02-06T09:12:13.569Z,10.61
2024-02-06T09:14:42.262Z,10.90
2024-02-06T09:17:11.000Z,11.30
2024-02-06T09:19:41.743Z,11.46
2024-02-06T09:22:10.275Z,11.48
2024-02-06T09:24:37.928Z,11.48
2024-02-06T09:27:05.899Z,11.46
2024-02-06T09:29:33.449Z,11.51
2024-02-06T09:32:01.187Z,11.88
2024-02-06T09:34:28.963Z,12.18
2024-02-06T09:36:56.904Z,12.30
2024-02-06T09:39:24.605Z,12.71
2024-02-06T09:41:52.565Z,12.97
2024-02-06T09:44:20.348Z,13.19
2024-02-06T09:46:48.045Z,13.18
2024-02-06T09:49:15.758Z,13.41
2024-02-06T09:51:43.555Z,14.18
2024-02-06T09:54:11.179Z,14.58
2024-02-06T09:56:38.759Z,14.84
2024-02-06T09:59:06.492Z,15.29
2024-02-06T10:01:34.476Z,15.53
2024-02-06T10:04:02.739Z,15.42
2024-02-06T10:06:30.964Z,15.38
2024-02-06T10:08:58.502Z,15.48
2024-02-06T10:11:26.147Z,15.74
2024-02-06T10:13:53.820Z,15.71
2024-02-06T10:16:21.500Z,15.04
2024-02-06T10:18:49.149Z,14.81
2024-02-06T10:21:16.800Z,14.72
2024-02-06T10:23:44.657Z,14.64
2024-02-06T10:26:12.220Z,14.91
2024-02-06T10:28:39.827Z,15.58
2024-02-06T10:31:07.385Z,16.06
2024-02-06T10:33:35.176Z,16.43
2024-02-06T10:36:02.992Z,16.57
2024-02-06T10:38:30.536Z,16.04
2024-02-06T10:41:09.328Z,15.56
2024-02-06T10:43:47.393Z,15.12
2024-02-06T10:46:16.720Z,14.73
2024-02-06T10:48:44.849Z,14.38
2024-02-06T10:51:12.493Z,13.87
2024-02-06T10:53:40.360Z,13.38
2024-02-06T10:56:08.146Z,12.86
2024-02-06T10:58:36.709Z,12.53
2024-02-06T11:01:04.335Z,12.19
2024-02-06T11:03:32.276Z,11.85
2024-02-06T11:06:00.346Z,11.63
2024-02-06T11:08:28.068Z,11.47
2024-02-06T11:10:55.882Z,11.32
2024-02-06T11:13:23.581Z,11.12
2024-02-06T11:15:51.370Z,10.86
2024-02-06T11:18:18.793Z,10.58
2024-02-06T11:20:46.602Z,10.31
2024-02-06T11:23:14.240Z,10.10
2024-02-06T11:25:41.845Z,9.95
2024-02-06T11:28:09.784Z,9.82
2024-02-06T11:30:37.553Z,9.68
2024-02-06T11:33:05.848Z,9.53
2024-02-06T11:35:33.673Z,9.45
2024-02-06T11:38:01.353Z,9.45
2024-02-06T11:40:29.155Z,9.44
2024-02-06T11:42:56.775Z,9.42
2024-02-06T11:45:24.336Z,9.37
2024-02-06T11:47:52.112Z,9.29
2024-02-06T11:50:19.888Z,9.24
2024-02-06T11:52:47.451Z,9.18
2024-02-06T11:55:15.389Z,9.14
2024-02-06T11:57:43.059Z,9.11
2024-02-06T12:00:10.816Z,9.09
2024-02-06T12:02:38.443Z,9.08
2024-02-06T12:05:07.399Z,9.07
2024-02-06T12:07:36.760Z,9.06
2024-02-06T12:10:05.787Z,9.04
2024-02-06T12:12:34.341Z,9.02
2024-02-06T12:15:01.916Z,9.02
2024-02-06T12:17:29.586Z,9.06
2024-02-06T12:19:57.299Z,9.11
2024-02-06T12:22:25.124Z,9.14
2024-02-06T12:24:52.858Z,9.17
2024-02-06T12:27:20.738Z,9.19
2024-02-06T12:29:48.277Z,9.17
2024-02-06T12:32:15.943Z,9.16
2024-02-06T12:34:44.022Z,9.12
2024-02-06T12:37:11.713Z,9.08
2024-02-06T12:39:39.382Z,9.07
2024-02-06T12:42:07.024Z,9.06
2024-02-06T12:44:45.208Z,9.04
2024-02-06T12:47:17.574Z,9.01
2024-02-06T12:49:45.324Z,9.00
2024-02-06T12:52:13.349Z,8.99
2024-02-06T12:54:41.485Z,8.97
2024-02-06T12:57:09.524Z,8.99
2024-02-06T12:59:37.850Z,9.02
2024-02-06T13:02:05.992Z,9.06
2024-02-06T13:04:33.833Z,9.09
2024-02-06T13:07:01.803Z,9.10
2024-02-06T13:09:29.705Z,9.10
2024-02-06T13:12:00.451Z,9.11
2024-02-06T13:14:28.524Z,9.09
2024-02-06T13:16:56.375Z,9.10
2024-02-06T13:19:24.474Z,9.08
2024-02-06T13:21:52.318Z,9.07
2024-02-06T13:24:19.976Z,9.06
2024-02-06T13:26:47.642Z,9.05
2024-02-06T13:29:15.299Z,9.03
2024-02-06T13:31:42.985Z,9.00
2024-02-06T13:34:10.710Z,8.95
2024-02-06T13:36:38.803Z,8.89
2024-02-06T13:39:06.376Z,8.85
2024-02-06T13:41:34.128Z,8.82
2024-02-06T13:44:02.244Z,8.81
2024-02-06T13:46:29.891Z,8.80
2024-02-06T13:48:57.920Z,8.79
2024-02-06T13:51:25.683Z,8.79
2024-02-06T13:53:53.374Z,8.76
2024-02-06T13:56:21.128Z,8.73
2024-02-06T13:58:48.731Z,8.71
2024-02-06T14:01:16.593Z,8.68
2024-02-06T14:03:44.256Z,8.65
2024-02-06T14:06:12.024Z,8.62
2024-02-06T14:08:39.736Z,8.60
2024-02-06T14:11:07.399Z,8.58
2024-02-06T14:13:35.087Z,8.56
2024-02-06T14:16:02.966Z,8.51
2024-02-06T14:18:30.753Z,8.50
2024-02-06T14:20:58.555Z,8.48
2024-02-06T14:23:27.533Z,8.47
2024-02-06T14:25:55.416Z,8.46
2024-02-06T14:28:23.200Z,8.44
2024-02-06T14:30:50.939Z,8.43
2024-02-06T14:33:18.546Z,8.44
2024-02-06T14:35:46.339Z,8.42
2024-02-06T14:38:14.024Z,8.41
2024-02-06T14:40:42.085Z,8.39
2024-02-06T14:43:09.794Z,8.37
2024-02-06T14:45:37.547Z,8.35
2024-02-06T14:48:05.205Z,8.33
2024-02-06T14:50:32.843Z,8.32
2024-02-06T14:53:00.542Z,8.32
2024-02-06T14:55:28.186Z,8.30
2024-02-06T14:57:55.931Z,8.28
2024-02-06T15:00:23.593Z,8.25
2024-02-06T15:02:52.751Z,8.22
2024-02-06T15:05:34.685Z,8.19
2024-02-06T15:08:02.400Z,8.18
2024-02-06T15:10:30.127Z,8.16
2024-02-06T15:12:57.871Z,8.16
2024-02-06T15:15:25.440Z,8.16
2024-02-06T15:17:53.202Z,8.15
2024-02-06T15:20:21.121Z,8.12
2024-02-06T15:22:48.985Z,8.09
2024-02-06T15:25:16.856Z,8.07
2024-02-06T15:27:44.674Z,8.05
2024-02-06T15:30:12.444Z,8.04
2024-02-06T15:32:40.072Z,8.02
2024-02-06T15:35:07.893Z,8.03
2024-02-06T15:37:35.710Z,8.02
2024-02-06T15:40:04.026Z,8.02
2024-02-06T15:42:31.658Z,8.03
2024-02-06T15:44:59.313Z,8.02
2024-02-06T15:47:26.923Z,8.03
2024-02-06T15:49:54.588Z,8.03
2024-02-06T15:52:22.512Z,8.01
2024-02-06T15:54:50.283Z,8.02
2024-02-06T15:57:20.640Z,8.03
2024-02-06T15:59:50.511Z,8.02
2024-02-06T16:02:18.385Z,8.02
2024-02-06T16:04:46.283Z,8.02
2024-02-06T16:07:14.094Z,8.03
2024-02-06T16:09:41.888Z,8.02
2024-02-06T16:12:09.439Z,8.03
2024-02-06T16:14:37.107Z,8.05
2024-02-06T16:17:04.658Z,8.08
2024-02-06T16:19:33.812Z,8.09
2024-02-06T16:22:03.323Z,8.08
2024-02-06T16:24:31.125Z,8.09
2024-02-06T16:26:58.678Z,8.08
2024-02-06T16:29:26.343Z,8.07
2024-02-06T16:31:54.059Z,8.08
2024-02-06T16:34:30.275Z,8.09
2024-02-06T16:37:06.086Z,8.11
2024-02-06T16:39:33.887Z,8.15
2024-02-06T16:42:02.166Z,8.18
2024-02-06T16:44:29.827Z,8.19
2024-02-06T16:46:57.420Z,8.20
2024-02-06T16:49:25.254Z,8.21
2024-02-06T16:51:53.145Z,8.21
2024-02-06T16:54:20.885Z,8.19
2024-02-06T16:56:48.464Z,8.18
2024-02-06T16:59:16.103Z,8.18
2024-02-06T17:01:43.736Z,8.18
2024-02-06T17:04:11.640Z,8.17
2024-02-06T17:06:42.550Z,8.19
2024-02-06T17:09:11.464Z,8.21
2024-02-06T17:11:39.123Z,8.23
2024-02-06T17:14:06.784Z,8.23
2024-02-06T17:16:34.503Z,8.25
2024-02-06T17:19:02.556Z,8.26
2024-02-06T17:21:30.285Z,8.27
2024-02-06T17:23:57.840Z,8.28
2024-02-06T17:26:25.521Z,8.29
2024-02-06T17:28:53.128Z,8.29
2024-02-06T17:31:20.854Z,8.28
2024-02-06T17:33:48.420Z,8.29
2024-02-06T17:36:16.237Z,8.29
2024-02-06T17:38:44.668Z,8.30
2024-02-06T17:41:12.801Z,8.31
2024-02-06T17:43:40.561Z,8.33
2024-02-06T17:46:08.243Z,8.33
2024-02-06T17:48:35.885Z,8.33
2024-02-06T17:51:03.453Z,8.33
2024-02-06T17:53:31.135Z,8.33
2024-02-06T17:55:58.748Z,8.33
2024-02-06T17:58:26.334Z,8.33
2024-02-06T18:00:54.254Z,8.34
2024-02-06T18:03:22.106Z,8.36
2024-02-06T18:05:49.711Z,8.36
2024-02-06T18:08:17.456Z,8.35
2024-02-06T18:10:45.300Z,8.35
2024-02-06T18:13:13.129Z,8.35
2024-02-06T18:15:40.677Z,8.36
2024-02-06T18:18:08.359Z,8.38
2024-02-06T18:20:36.092Z,8.41
2024-02-06T18:23:03.663Z,8.41
2024-02-06T18:25:31.657Z,8.41
2024-02-06T18:27:59.382Z,8.42
2024-02-06T18:30:27.045Z,8.42
2024-02-06T18:32:54.889Z,8.42
2024-02-06T18:35:22.722Z,8.44
2024-02-06T18:37:50.758Z,8.44
2024-02-06T18:40:18.688Z,8.42
2024-02-06T18:42:46.678Z,8.41
2024-02-06T18:45:14.349Z,8.40
2024-02-06T18:47:42.449Z,8.40
2024-02-06T18:50:10.192Z,8.42
2024-02-06T18:52:38.186Z,8.42
2024-02-06T18:55:05.956Z,8.44
2024-02-06T18:57:33.675Z,8.46
2024-02-06T19:00:01.257Z,8.49
2024-02-06T19:02:29.224Z,8.51
2024-02-06T19:04:57.189Z,8.53
2024-02-06T19:07:25.055Z,8.53
2024-02-06T19:09:52.827Z,8.54
2024-02-06T19:12:20.474Z,8.55
2024-02-06T19:14:48.145Z,8.57
2024-02-06T19:17:15.804Z,8.57
2024-02-06T19:19:43.555Z,8.58
2024-02-06T19:22:11.571Z,8.57
2024-02-06T19:24:39.110Z,8.57
2024-02-06T19:27:07.062Z,8.58
2024-02-06T19:29:34.620Z,8.58
2024-02-06T19:32:04.683Z,8.58
2024-02-06T19:34:34.403Z,8.60
2024-02-06T19:37:02.481Z,8.62
2024-02-06T19:39:30.318Z,8.63
2024-02-06T19:41:58.070Z,8.64
2024-02-06T19:44:25.820Z,8.66
2024-02-06T19:46:53.658Z,8.69
2024-02-06T19:49:21.793Z,8.71
2024-02-06T19:51:49.897Z,8.73
2024-02-06T19:54:17.703Z,8.74
2024-02-06T19:56:45.455Z,8.74
2024-02-06T19:59:13.125Z,8.75
2024-02-06T20:01:40.860Z,8.78
2024-02-06T20:04:08.898Z,8.80
2024-02-06T20:06:52.384Z,8.86
2024-02-06T20:09:20.149Z,8.80
2024-02-06T20:11:47.714Z,8.80
2024-02-06T20:14:15.371Z,8.80
2024-02-06T20:16:43.067Z,8.81
2024-02-06T20:19:10.774Z,8.82
2024-02-06T20:21:38.564Z,8.80
2024-02-06T20:24:06.218Z,8.80
2024-02-06T20:26:34.091Z,8.82
2024-02-06T20:29:01.783Z,8.83
2024-02-06T20:31:29.461Z,8.84
2024-02-06T20:33:57.205Z,8.84
2024-02-06T20:36:24.830Z,8.85
2024-02-06T20:38:52.598Z,8.87
2024-02-06T20:41:20.270Z,8.89
2024-02-06T20:43:47.956Z,8.89
2024-02-06T20:46:15.756Z,8.90
2024-02-06T20:48:43.705Z,8.93
2024-02-06T20:51:11.319Z,8.95
2024-02-06T20:53:38.882Z,8.96
2024-02-06T20:56:06.435Z,8.98
2024-02-06T20:58:33.955Z,8.99
2024-02-06T21:01:01.770Z,8.99
2024-02-06T21:03:29.536Z,8.98
2024-02-06T21:05:57.404Z,8.98
2024-02-06T21:08:24.850Z,8.97
2024-02-06T21:10:52.602Z,8.99
2024-02-06T21:13:20.283Z,9.00
2024-02-06T21:15:52.132Z,9.00
2024-02-06T21:18:19.749Z,8.99
2024-02-06T21:20:47.663Z,8.98
2024-02-06T21:23:15.427Z,8.97
2024-02-06T21:25:43.181Z,8.98
2024-02-06T21:28:10.893Z,9.00
2024-02-06T21:30:38.627Z,9.00
2024-02-06T21:33:06.523Z,9.03
2024-02-06T21:35:34.246Z,9.04
2024-02-06T21:38:01.822Z,9.05
2024-02-06T21:40:29.476Z,9.05
2024-02-06T21:42:57.014Z,9.04
2024-02-06T21:45:24.800Z,9.05
2024-02-06T21:47:52.396Z,9.06
2024-02-06T21:50:20.166Z,9.07
2024-02-06T21:52:48.005Z,9.08
2024-02-06T21:55:16.012Z,9.08
2024-02-06T21:57:43.703Z,9.08
2024-02-06T22:00:11.403Z,9.08
2024-02-06T22:02:38.930Z,9.10
2024-02-06T22:05:06.651Z,9.09
2024-02-06T22:07:34.545Z,9.08
2024-02-06T22:10:02.452Z,9.08
2024-02-06T22:12:30.500Z,9.09
2024-02-06T22:14:58.144Z,9.11
2024-02-06T22:17:25.716Z,9.11
2024-02-06T22:19:53.396Z,9.10
2024-02-06T22:22:21.184Z,9.10
2024-02-06T22:24:48.701Z,9.11
2024-02-06T22:27:16.374Z,9.12
2024-02-06T22:29:44.024Z,9.13
2024-02-06T22:32:11.690Z,9.13
2024-02-06T22:34:39.660Z,9.13
2024-02-06T22:37:07.567Z,9.12
2024-02-06T22:39:35.247Z,9.13
2024-02-06T22:42:02.947Z,9.13
2024-02-06T22:44:30.713Z,9.14
2024-02-06T22:46:58.408Z,9.13
2024-02-06T22:49:26.116Z,9.13
2024-02-06T22:51:53.701Z,9.12
2024-02-06T22:54:21.262Z,9.14
2024-02-06T22:56:51.216Z,9.15
2024-02-06T22:59:18.766Z,9.17
2024-02-06T23:01:46.667Z,9.18
2024-02-06T23:04:14.537Z,9.19
2024-02-06T23:06:42.332Z,9.17
2024-02-06T23:09:09.995Z,9.17
2024-02-06T23:11:37.555Z,9.17
2024-02-06T23:14:05.214Z,9.16
2024-02-06T23:16:33.130Z,9.13
2024-02-06T23:19:00.907Z,9.13
2024-02-06T23:21:28.610Z,9.13
2024-02-06T23:23:56.163Z,9.13
2024-02-06T23:26:23.818Z,9.13
2024-02-06T23:28:51.743Z,9.10
2024-02-06T23:31:19.486Z,9.10
2024-02-06T23:33:47.018Z,9.10
2024-02-06T23:36:14.574Z,9.12
2024-02-06T23:38:58.114Z,9.13
2024-02-06T23:41:29.653Z,9.14
2024-02-06T23:43:57.258Z,9.13
2024-02-06T23:46:25.117Z,9.12
2024-02-06T23:48:52.913Z,9.11
2024-02-06T23:51:20.715Z,9.09
2024-02-06T23:53:48.281Z,9.08
2024-02-06T23:56:15.941Z,9.08
2024-02-06T23:58:43.616Z,9.07
